Time;durP1;ratioP1;P1;durP2;ratioP2;P2;SDS_P1;SDS_P2;PMS_P1;PMS_P2;Temp;Humidity;BMP_temperature;BMP_pressure;BME280_temperature;BME280_humidity;BME280_pressure;Samples;Min_cycle;Max_cycle;Signal;HPM_P1;HPM_P2
2022/09/10 00:02:23;;;;;;;2.75;2.58;;;;;;;19.35;72.11;94286.38;2617598;54;20145;-81
2022/09/10 00:04:52;;;;;;;4.20;3.78;;;;;;;20.21;73.02;94397.09;2616931;47;20192;-82
2022/09/10 00:07:21;;;;;;;3.97;3.78;;;;;;;19.60;72.94;94321.41;2618304;54;20153;-82
2022/09/10 00:10:25;;;;;;;3.40;3.20;;;;;;;19.03;74.28;94302.34;2619058;54;20256;-83
2022/09/10 00:12:54;;;;;;;3.10;2.90;;;;;;;19.05;75.55;94328.16;2618129;54;20169;-81
2022/09/10 00:15:23;;;;;;;4.22;3.92;;;;;;;19.63;76.57;94424.09;2618172;54;20409;-82
2022/09/10 00:17:52;;;;;;;3.65;3.35;;;;;;;18.57;75.68;94245.91;2619308;54;20783;-81
2022/09/10 00:20:21;;;;;;;4.57;4.10;;;;;;;19.43;74.41;94355.94;2619584;54;20149;-81
2022/09/10 00:22:50;;;;;;;3.35;3.08;;;;;;;20.11;68.32;94299.41;2618366;54;20164;-82
2022/09/10 00:25:19;;;;;;;3.55;3.25;;;;;;;19.70;70.17;94270.31;2618902;47;20153;-81
2022/09/10 00:27:50;;;;;;;3.97;3.67;;;;;;;20.53;70.72;94396.06;2618684;54;20145;-81
2022/09/10 00:30:20;;;;;;;3.08;2.88;;;;;;;21.22;66.63;94406.84;2618636;47;20172;-81
2022/09/10 00:32:51;;;;;;;3.97;3.70;;;;;;;21.07;65.11;94339.34;2619307;39;20530;-81
2022/09/10 00:35:21;;;;;;;5.00;4.18;;;;;;;20.39;69.77;94321.44;2618300;54;20164;-81
2022/09/10 00:37:50;;;;;;;3.35;3.15;;;;;;;19.07;73.83;94285.13;2618497;54;20145;-82
2022/09/10 00:40:19;;;;;;;3.28;2.97;;;;;;;19.00;75.43;94314.56;2618316;54;20159;-81
2022/09/10 00:42:50;;;;;;;3.35;3.15;;;;;;;18.98;75.82;94332.53;2618736;54;20909;-83
2022/09/10 00:45:21;;;;;;;3.42;3.22;;;;;;;19.26;76.55;94371.84;2618678;54;20151;-81
2022/09/10 00:47:54;;;;;;;3.60;3.38;;;;;;;19.47;74.08;94335.09;2620311;54;20145;-81
2022/09/10 00:50:26;;;;;;;2.97;2.78;;;;;;;19.98;73.58;94372.09;2628461;39;20559;-81
2022/09/10 00:52:58;;;;;;;3.50;3.30;;;;;;;19.55;73.30;94317.13;2620460;54;20311;-81
2022/09/10 00:55:27;;;;;;;3.22;2.80;;;;;;;19.63;72.38;94303.44;2619152;39;20619;-82
2022/09/10 00:58:02;;;;;;;3.25;3.05;;;;;;;20.64;71.64;94421.91;2618361;54;20660;-81
2022/09/10 01:00:30;;;;;;;4.82;4.20;;;;;;;20.09;72.34;94342.53;2618539;54;20671;-82
2022/09/10 01:03:00;;;;;;;6.15;4.13;;;;;;;20.59;68.14;94340.66;2619358;39;20562;-82
2022/09/10 01:05:29;;;;;;;3.50;3.20;;;;;;;21.02;69.68;94415.72;2618867;54;20153;-82
2022/09/10 01:08:01;;;;;;;7.90;3.55;;;;;;;20.49;70.52;94355.88;2619845;54;20152;-82
2022/09/10 01:10:37;;;;;;;4.57;4.18;;;;;;;20.62;67.95;94336.31;2619800;47;20155;-81
2022/09/10 01:13:26;;;;;;;3.38;3.17;;;;;;;20.80;66.95;94312.34;2618390;46;20171;-81
2022/09/10 01:16:01;;;;;;;4.10;3.80;;;;;;;21.18;68.50;94380.25;2618675;54;20164;-82
2022/09/10 01:18:41;;;;;;;4.32;3.38;;;;;;;20.27;70.58;94304.28;2619074;54;20153;-81
2022/09/10 01:21:35;;;;;;;6.55;3.33;;;;;;;19.86;71.09;94272.34;2619348;54;20144;-81
2022/09/10 01:24:36;;;;;;;4.88;4.53;;;;;;;19.86;73.02;94316.16;2621741;54;20177;-81
2022/09/10 01:27:46;;;;;;;3.97;3.65;;;;;;;19.77;73.08;94316.97;2626091;54;20160;-82
2022/09/10 01:30:21;;;;;;;3.75;3.45;;;;;;;20.35;72.45;94346.63;2618864;54;20191;-81
2022/09/10 01:32:58;;;;;;;9.82;4.13;;;;;;;19.54;75.04;94299.19;2619186;46;20171;-81
2022/09/10 01:35:34;;;;;;;3.78;3.50;;;;;;;20.67;71.16;94398.09;2619528;54;20148;-82
2022/09/10 01:38:06;;;;;;;3.33;2.92;;;;;;;19.73;72.74;94253.78;2618436;46;20152;-83
2022/09/10 01:40:36;;;;;;;3.70;3.35;;;;;;;19.69;69.81;94231.53;2618378;54;20672;-81
2022/09/10 01:43:07;;;;;;;3.30;3.05;;;;;;;20.55;67.25;94260.13;2618404;54;20145;-82
2022/09/10 01:45:50;;;;;;;3.63;3.33;;;;;;;20.94;68.60;94312.88;2618238;47;20155;-82
2022/09/10 01:48:38;;;;;;;7.55;4.00;;;;;;;20.94;70.85;94389.88;2618058;54;20240;-82
2022/09/10 01:51:19;;;;;;;3.10;2.60;;;;;;;20.42;70.51;94311.34;2618802;54;20160;-82
2022/09/10 01:54:10;;;;;;;3.05;2.85;;;;;;;20.30;72.54;94345.22;2620217;39;20601;-82
2022/09/10 01:56:44;;;;;;;4.57;4.28;;;;;;;19.95;73.77;94336.94;2618492;54;20145;-81
2022/09/10 01:59:22;;;;;;;3.38;3.17;;;;;;;20.34;73.69;94373.97;2618054;54;20655;-82
2022/09/10 02:02:02;;;;;;;4.07;3.78;;;;;;;20.27;67.93;94272.66;2620387;54;20160;-82
2022/09/10 02:04:32;;;;;;;3.40;3.10;;;;;;;20.60;66.19;94272.31;2624853;46;20330;-81
2022/09/10 02:07:03;;;;;;;3.70;3.40;;;;;;;20.85;65.17;94264.78;2618288;46;20170;-81
2022/09/10 02:09:32;;;;;;;4.45;4.03;;;;;;;20.62;67.00;94255.03;2620120;39;20654;-81
2022/09/10 02:12:02;;;;;;;3.33;3.13;;;;;;;20.83;70.37;94377.06;2626576;54;20175;-81
2022/09/10 02:14:30;;;;;;;3.75;3.38;;;;;;;20.22;73.17;94363.28;2618147;54;20152;-81
2022/09/10 02:17:03;;;;;;;4.55;3.80;;;;;;;20.12;75.51;94410.06;2618175;54;20145;-82
2022/09/10 02:19:47;;;;;;;4.60;3.90;;;;;;;19.38;78.01;94366.03;2618096;47;20152;-82
2022/09/10 02:22:16;;;;;;;3.45;3.15;;;;;;;19.31;75.30;94286.38;2617974;54;20660;-82
2022/09/10 02:24:45;;;;;;;4.50;4.10;;;;;;;19.07;75.30;94247.09;2617532;47;20217;-81
2022/09/10 02:27:15;;;;;;;3.70;3.30;;;;;;;20.02;76.33;94403.69;2619568;39;20204;-81
2022/09/10 02:29:43;;;;;;;4.57;4.00;;;;;;;20.27;74.96;94404.94;2618207;54;20648;-81
2022/09/10 02:32:16;;;;;;;5.65;3.92;;;;;;;20.26;74.71;94394.88;2617880;54;20167;-81
2022/09/10 02:34:45;;;;;;;5.70;3.35;;;;;;;20.50;69.62;94322.75;2618037;54;20153;-81
2022/09/10 02:37:15;;;;;;;3.30;3.00;;;;;;;21.11;67.48;94365.22;2618203;54;20237;-81
2022/09/10 02:39:45;;;;;;;3.60;3.40;;;;;;;20.90;66.51;94312.94;2618855;54;20228;-82
2022/09/10 02:42:16;;;;;;;4.20;3.78;;;;;;;20.78;68.91;94332.50;2619269;47;20263;-81
2022/09/10 02:44:46;;;;;;;5.20;3.35;;;;;;;21.77;66.17;94426.31;2618719;54;20191;-82
2022/09/10 02:47:18;;;;;;;3.38;3.08;;;;;;;21.44;65.31;94347.53;2618011;54;20168;-82
2022/09/10 02:54:14;;;;;;;2.78;2.65;;;;;;;20.78;65.81;94257.69;2617174;47;20160;-81
2022/09/10 02:56:55;;;;;;;2.67;2.58;;;;;;;22.12;63.92;94402.75;2616259;47;20161;-83
2022/09/10 02:59:24;;;;;;;4.25;3.88;;;;;;;21.21;63.17;94269.34;2617577;54;20163;-83
2022/09/10 03:01:53;;;;;;;4.35;3.95;;;;;;;21.76;62.97;94326.88;2618316;54;20145;-81
2022/09/10 03:04:24;;;;;;;3.42;3.20;;;;;;;22.05;62.70;94353.09;2618646;39;20564;-81
2022/09/10 03:06:54;;;;;;;3.15;2.88;;;;;;;21.93;62.58;94338.88;2618429;47;20252;-81
2022/09/10 03:09:23;;;;;;;3.17;2.88;;;;;;;21.87;62.29;94330.31;2617866;54;20164;-81
2022/09/10 03:11:53;;;;;;;5.00;3.95;;;;;;;21.31;66.02;94320.38;2618385;39;20557;-81
2022/09/10 03:14:23;;;;;;;2.83;2.67;;;;;;;21.11;67.56;94333.53;2619113;54;20160;-81
2022/09/10 03:16:52;;;;;;;5.57;3.45;;;;;;;21.00;68.60;94351.69;2626717;54;20144;-81
2022/09/10 03:19:23;;;;;;;4.85;4.35;;;;;;;21.64;66.19;94416.41;2618415;47;20168;-81
2022/09/10 03:21:52;;;;;;;7.05;4.57;;;;;;;20.99;69.15;94362.50;2618458;54;20145;-82
2022/09/10 03:24:21;;;;;;;4.30;3.95;;;;;;;20.67;71.62;94385.88;2620170;54;20179;-82
2022/09/10 03:26:50;;;;;;;4.72;4.00;;;;;;;20.19;70.63;94318.75;2618960;54;20262;-81
2022/09/10 03:29:19;;;;;;;3.55;3.05;;;;;;;19.98;71.20;94260.72;2618048;54;20149;-81
2022/09/10 03:31:50;;;;;;;4.28;3.97;;;;;;;20.02;74.37;94374.97;2619629;47;20155;-81
2022/09/10 03:34:19;;;;;;;3.97;3.75;;;;;;;19.70;78.18;94399.59;2626174;47;20164;-83
2022/09/10 03:36:51;;;;;;;3.78;3.45;;;;;;;19.12;79.78;94358.28;2617627;54;20295;-81
2022/09/10 03:39:20;;;;;;;4.13;3.83;;;;;;;18.47;82.01;94306.16;2617403;54;20159;-81
2022/09/10 03:41:49;;;;;;;3.45;3.17;;;;;;;18.55;81.94;94305.44;2618126;39;20529;-81
2022/09/10 03:44:18;;;;;;;3.67;3.38;;;;;;;18.48;82.01;94301.84;2617447;54;20195;-81
2022/09/10 03:46:49;;;;;;;4.45;4.03;;;;;;;18.45;82.23;94298.28;2617352;54;20174;-81
2022/09/10 03:49:18;;;;;;;4.38;3.92;;;;;;;18.25;80.85;94229.56;2618072;47;20168;-82
2022/09/10 03:51:50;;;;;;;4.38;3.97;;;;;;;18.66;83.50;94344.13;2618695;54;20670;-83
2022/09/10 03:54:19;;;;;;;4.18;3.88;;;;;;;18.84;82.31;94349.81;2618181;47;20156;-81
2022/09/10 03:56:48;;;;;;;4.33;3.93;;;;;;;19.07;82.27;94371.22;2617971;46;20168;-81
2022/09/10 03:59:17;;;;;;;5.18;4.68;;;;;;;18.18;82.47;94224.56;2618170;54;20667;-81
2022/09/10 04:01:46;;;;;;;3.92;3.72;;;;;;;18.36;81.40;94230.22;2618153;46;20172;-81
2022/09/10 04:04:15;;;;;;;4.78;4.05;;;;;;;20.46;73.38;94388.97;2618813;54;20728;-82
2022/09/10 04:06:44;;;;;;;4.30;3.95;;;;;;;20.12;74.65;94349.00;2619168;54;20165;-83
2022/09/10 04:09:31;;;;;;;9.68;3.90;;;;;;;20.06;77.39;94400.81;2618049;54;20153;-81
2022/09/10 04:12:00;;;;;;;4.30;3.90;;;;;;;20.12;75.19;94369.81;2618451;46;20172;-82
2022/09/10 04:14:29;;;;;;;4.20;3.88;;;;;;;20.43;74.38;94381.81;2618284;47;20157;-81
2022/09/10 04:19:47;;;;;;;5.97;4.05;;;;;;;19.74;75.85;94324.16;2617713;47;20161;-81
2022/09/10 04:22:16;;;;;;;4.15;3.80;;;;;;;19.59;75.18;94279.75;2619060;39;20547;-81
2022/09/10 04:24:54;;;;;;;4.07;3.67;;;;;;;21.18;69.70;94421.28;2619133;54;20215;-81
2022/09/10 04:27:23;;;;;;;3.40;3.17;;;;;;;20.34;67.99;94245.25;2620343;54;20163;-81
2022/09/10 04:30:08;;;;;;;3.88;3.58;;;;;;;21.35;68.12;94390.13;2625959;54;20169;-81
2022/09/10 04:32:43;;;;;;;4.60;4.20;;;;;;;20.86;67.80;94318.03;2619350;47;20170;-82
2022/09/10 04:35:14;;;;;;;5.07;4.50;;;;;;;21.31;71.25;94430.53;2618597;47;20168;-81
2022/09/10 04:37:44;;;;;;;4.95;4.55;;;;;;;20.29;72.98;94338.78;2618288;47;20164;-81
2022/09/10 04:40:15;;;;;;;4.32;4.03;;;;;;;20.19;75.50;94382.72;2618691;54;20153;-81
2022/09/10 04:42:44;;;;;;;4.20;3.80;;;;;;;19.34;81.27;94409.13;2618459;54;20184;-81
2022/09/10 04:45:13;;;;;;;3.42;3.13;;;;;;;18.73;81.33;94326.16;2618162;54;20154;-81
2022/09/10 04:47:42;;;;;;;4.30;4.00;;;;;;;18.70;80.51;94286.75;2618522;54;20171;-82
2022/09/10 04:50:13;;;;;;;4.70;4.25;;;;;;;18.78;81.68;94306.78;2618753;39;20571;-81
2022/09/10 04:52:42;;;;;;;4.13;3.83;;;;;;;18.11;82.82;94235.31;2618623;54;20164;-82
2022/09/10 04:55:11;;;;;;;4.47;4.07;;;;;;;19.12;82.83;94366.91;2623386;54;20145;-81
2022/09/10 04:57:43;;;;;;;4.85;3.58;;;;;;;19.30;82.43;94345.25;2622310;54;20157;-82
2022/09/10 05:00:13;;;;;;;4.63;4.30;;;;;;;19.68;75.11;94304.13;2619195;54;20152;-82
2022/09/10 05:02:42;;;;;;;4.28;3.97;;;;;;;19.55;78.90;94300.59;2619051;47;20165;-82
2022/09/10 05:05:12;;;;;;;3.85;3.55;;;;;;;18.91;81.22;94296.69;2619468;54;20167;-82
2022/09/10 05:07:41;;;;;;;4.18;3.88;;;;;;;19.00;79.59;94262.91;2618566;54;20172;-81
2022/09/10 05:10:09;;;;;;;4.97;4.32;;;;;;;;;;2619181;46;20172;-82
2022/09/10 05:12:38;;;;;;;5.95;4.07;;;;;;;19.24;78.13;94233.34;2620701;47;20266;-83
2022/09/10 05:15:11;;;;;;;3.95;3.65;;;;;;;19.62;81.05;94364.47;2621185;54;20157;-81
2022/09/10 05:17:40;;;;;;;4.18;3.88;;;;;;;18.73;80.99;94263.06;2619490;54;20160;-82
2022/09/10 05:20:09;;;;;;;4.60;3.97;;;;;;;19.63;82.70;94389.59;2618778;47;20188;-82
2022/09/10 05:22:38;;;;;;;3.63;3.42;;;;;;;19.88;75.37;94336.25;2618953;54;20149;-82
2022/09/10 05:25:08;;;;;;;5.90;4.00;;;;;;;19.68;75.89;94316.28;2619205;54;20196;-82
2022/09/10 05:27:37;;;;;;;4.88;4.47;;;;;;;20.20;72.18;94311.56;2620386;54;20153;-81
2022/09/10 05:30:07;;;;;;;4.43;4.03;;;;;;;20.70;71.05;94367.13;2627754;39;20684;-81
2022/09/10 05:32:39;;;;;;;7.05;4.70;;;;;;;20.72;73.01;94379.34;2626018;54;20236;-82
2022/09/10 05:35:09;;;;;;;4.28;3.97;;;;;;;21.02;74.62;94435.88;2619156;47;20169;-81
2022/09/10 05:37:38;;;;;;;4.53;4.13;;;;;;;21.00;75.50;94433.03;2619253;54;20145;-82
2022/09/10 05:40:09;;;;;;;4.15;3.78;;;;;;;19.33;78.75;94263.41;2620233;54;20175;-82
2022/09/10 05:42:38;;;;;;;8.75;4.68;;;;;;;19.91;76.89;94359.25;2623817;54;20187;-81
2022/09/10 05:45:08;;;;;;;4.03;3.72;;;;;;;20.59;77.45;94415.47;2628188;54;20151;-82
2022/09/10 05:47:40;;;;;;;4.45;4.07;;;;;;;19.66;80.42;94350.09;2619899;47;20153;-81
2022/09/10 05:50:16;;;;;;;4.50;4.20;;;;;;;20.15;78.34;94387.78;2619206;54;20180;-82
2022/09/10 05:52:45;;;;;;;4.47;4.07;;;;;;;19.69;79.66;94317.72;2619814;47;20152;-82
2022/09/10 05:55:14;;;;;;;4.88;4.40;;;;;;;19.45;81.73;94317.88;2619273;47;20176;-80
2022/09/10 05:57:43;;;;;;;5.22;4.75;;;;;;;19.48;80.51;94281.97;2618869;54;20153;-81
2022/09/10 06:00:13;;;;;;;4.43;4.03;;;;;;;19.81;77.50;94280.28;2618621;54;20167;-82
2022/09/10 06:02:45;;;;;;;5.28;4.68;;;;;;;20.26;75.89;94302.13;2619227;54;20173;-82
2022/09/10 06:05:14;;;;;;;6.13;5.00;;;;;;;20.44;73.35;94308.44;2619312;54;20145;-81
2022/09/10 06:07:42;;;;;;;5.03;4.63;;;;;;;20.94;74.39;94407.16;2618984;54;20152;-83
2022/09/10 06:10:12;;;;;;;4.43;4.10;;;;;;;21.05;72.57;94385.44;2619530;54;20160;-80
2022/09/10 06:12:46;;;;;;;4.65;3.80;;;;;;;20.63;70.58;94306.09;2619804;47;20175;-82
2022/09/10 06:15:15;;;;;;;4.55;4.22;;;;;;;20.79;69.45;94302.28;2620323;54;20144;-83
2022/09/10 06:17:48;;;;;;;4.80;4.40;;;;;;;21.71;71.23;94429.28;2624551;54;20172;-81
2022/09/10 06:20:19;;;;;;;5.20;4.80;;;;;;;21.36;71.56;94411.00;2625595;47;20160;-82
2022/09/10 06:22:53;;;;;;;5.53;5.13;;;;;;;20.20;73.22;94286.38;2623858;54;20172;-82
2022/09/10 06:25:23;;;;;;;5.28;4.88;;;;;;;20.63;72.28;94300.34;2620704;54;20663;-81
2022/09/10 06:27:52;;;;;;;6.43;4.68;;;;;;;20.60;70.65;94255.75;2618782;54;20180;-81
2022/09/10 06:30:21;;;;;;;4.78;4.32;;;;;;;21.68;68.89;94404.13;2620668;47;20149;-81
2022/09/10 06:32:52;;;;;;;5.65;4.32;;;;;;;21.70;67.71;94381.75;2619221;54;20152;-82
2022/09/10 06:35:28;;;;;;;7.90;4.82;;;;;;;21.55;65.85;94326.47;2619759;39;20618;-81
2022/09/10 06:37:58;;;;;;;4.93;4.45;;;;;;;20.94;68.61;94278.34;2618185;47;20172;-82
2022/09/10 06:40:28;;;;;;;4.80;4.47;;;;;;;20.03;71.08;94238.41;2618747;46;20165;-82
2022/09/10 06:42:57;;;;;;;5.65;4.88;;;;;;;20.09;73.40;94293.66;2618797;47;20153;-81
2022/09/10 06:45:26;;;;;;;5.47;4.97;;;;;;;20.36;73.01;94320.03;2618609;54;20149;-82
2022/09/10 06:47:58;;;;;;;5.72;4.70;;;;;;;20.23;73.78;94307.19;2618677;46;20160;-82
2022/09/10 06:50:27;;;;;;;5.72;4.82;;;;;;;21.05;73.84;94393.34;2618419;54;20683;-82
2022/09/10 06:52:56;;;;;;;8.90;5.90;;;;;;;20.28;73.01;94284.88;2619186;46;20175;-80
2022/09/10 06:55:25;;;;;;;6.40;4.88;;;;;;;21.02;71.37;94343.03;2620128;54;20145;-82
2022/09/10 06:57:54;;;;;;;7.03;5.47;;;;;;;20.90;71.15;94330.22;2625940;54;20153;-82
2022/09/10 07:00:24;;;;;;;7.50;5.20;;;;;;;21.95;68.77;94405.88;2618854;54;20154;-82
2022/09/10 07:02:54;;;;;;;6.15;5.53;;;;;;;22.17;67.95;94395.47;2618327;46;20165;-82
2022/09/10 07:05:27;;;;;;;6.30;5.70;;;;;;;22.12;67.01;94371.75;2618457;54;20176;-81
2022/09/10 07:07:56;;;;;;;5.65;5.15;;;;;;;22.72;64.68;94414.72;2618144;47;20160;-81
2022/09/10 07:10:39;;;;;;;5.05;4.47;;;;;;;22.44;63.28;94335.84;2618673;47;20176;-82
2022/09/10 07:13:09;;;;;;;4.20;3.67;;;;;;;22.53;62.38;94276.53;2618366;54;20187;-80
2022/09/10 07:15:38;;;;;;;4.30;3.97;;;;;;;23.46;60.71;94363.47;2618424;54;20706;-84
2022/09/10 07:18:07;;;;;;;5.00;4.53;;;;;;;23.02;60.33;94301.56;2619094;47;21076;-82
2022/09/10 07:20:39;;;;;;;5.32;4.82;;;;;;;23.19;61.59;94354.63;2619277;54;20691;-84
2022/09/10 07:23:08;;;;;;;5.80;4.70;;;;;;;23.25;62.33;94380.50;2618465;54;20272;-80
2022/09/10 07:25:37;;;;;;;5.70;5.10;;;;;;;22.55;63.81;94333.50;2613981;54;20188;-80
2022/09/10 07:28:12;;;;;;;5.32;4.93;;;;;;;21.86;62.96;94237.38;2612729;47;20165;-82
2022/09/10 07:30:42;;;;;;;4.38;4.07;;;;;;;22.72;62.28;94331.72;2613141;54;20159;-80
2022/09/10 07:33:12;;;;;;;4.63;4.28;;;;;;;23.59;61.08;94401.50;2613502;54;20160;-80
2022/09/10 07:35:43;;;;;;;4.18;3.78;;;;;;;23.15;59.03;94282.50;2612226;47;20164;-82
2022/09/10 07:38:16;;;;;;;4.68;4.28;;;;;;;24.45;57.68;94424.16;2620171;54;20153;-82
2022/09/10 07:40:45;;;;;;;7.18;3.97;;;;;;;24.68;56.85;94413.41;2619708;54;20168;-81
2022/09/10 07:43:21;;;;;;;4.55;4.07;;;;;;;24.22;55.79;94328.44;2616744;54;20163;-85
2022/09/10 07:49:14;;;;;;;4.45;4.13;;;;;;;24.78;54.76;94357.41;2615585;47;20753;-82
2022/09/10 07:51:45;;;;;;;5.38;4.30;;;;;;;24.90;53.92;94302.03;2616422;54;20283;-80
2022/09/10 07:54:15;;;;;;;4.40;3.80;;;;;;;25.98;52.91;94423.59;2616531;54;20197;-82
2022/09/10 07:56:50;;;;;;;3.45;3.17;;;;;;;24.99;51.32;94273.59;2616186;39;20575;-82
2022/09/10 07:59:19;;;;;;;4.10;3.80;;;;;;;25.44;51.33;94334.53;2616382;39;20564;-82
2022/09/10 08:01:49;;;;;;;3.95;3.65;;;;;;;25.06;51.16;94266.13;2616193;54;20157;-82
2022/09/10 08:04:18;;;;;;;4.15;3.85;;;;;;;25.51;51.07;94332.19;2616623;39;20778;-83
2022/09/10 08:06:50;;;;;;;3.88;3.22;;;;;;;25.46;51.24;94293.19;2616433;54;20157;-81
2022/09/10 08:09:20;;;;;;;3.45;3.25;;;;;;;26.04;50.28;94353.78;2617800;47;20184;-84
2022/09/10 08:12:00;;;;;;;3.10;2.97;;;;;;;26.55;50.13;94413.81;2621111;54;20157;-82
2022/09/10 08:14:30;;;;;;;3.40;3.20;;;;;;;25.88;49.99;94328.88;2615897;54;20168;-83
2022/09/10 08:17:11;;;;;;;3.83;3.38;;;;;;;26.14;51.40;94432.50;2617298;54;20164;-83
2022/09/10 08:19:40;;;;;;;4.30;3.75;;;;;;;25.45;51.07;94301.16;2615775;46;20182;-81
2022/09/10 08:22:13;;;;;;;4.53;4.13;;;;;;;26.71;50.44;94418.38;2616312;47;20161;-82
2022/09/10 08:24:49;;;;;;;3.67;3.03;;;;;;;26.53;49.55;94364.53;2616005;54;20222;-81
2022/09/10 08:27:19;;;;;;;5.18;3.83;;;;;;;25.60;50.88;94300.75;2616037;54;20970;-81
2022/09/10 08:29:48;;;;;;;3.90;3.60;;;;;;;25.55;51.91;94331.34;2616123;54;20145;-83
2022/09/10 08:32:22;;;;;;;4.45;4.15;;;;;;;26.00;51.66;94369.13;2617437;54;20144;-83
2022/09/10 08:34:51;;;;;;;3.85;3.65;;;;;;;25.62;53.11;94402.19;2618394;54;20171;-81
2022/09/10 08:37:23;;;;;;;5.03;3.63;;;;;;;25.50;54.19;94400.34;2618985;31;20633;-81
2022/09/10 08:39:52;;;;;;;4.32;4.03;;;;;;;25.00;54.21;94359.03;2618854;39;20531;-82
2022/09/10 08:42:25;;;;;;;4.95;4.10;;;;;;;25.23;54.41;94400.38;2621251;46;20164;-81
2022/09/10 08:44:57;;;;;;;4.15;3.90;;;;;;;25.09;54.97;94410.19;2618463;54;20168;-82
2022/09/10 08:47:48;;;;;;;3.60;3.38;;;;;;;24.62;55.13;94312.22;2618038;46;20638;-82
2022/09/10 08:50:24;;;;;;;8.13;3.83;;;;;;;24.20;54.66;94258.31;2618014;54;20155;-82
2022/09/10 08:53:00;;;;;;;4.50;4.20;;;;;;;24.19;55.35;94286.56;2618403;54;20145;-83
2022/09/10 08:55:33;;;;;;;4.40;4.10;;;;;;;24.35;54.58;94256.50;2622373;47;20212;-82
2022/09/10 08:58:10;;;;;;;4.07;3.78;;;;;;;25.44;54.52;94401.22;2624635;54;20164;-82
2022/09/10 09:00:43;;;;;;;4.32;3.47;;;;;;;24.24;54.49;94255.34;2619790;54;20149;-83
2022/09/10 09:03:16;;;;;;;3.97;3.65;;;;;;;25.18;55.08;94413.56;2618725;54;20250;-84
2022/09/10 09:05:49;;;;;;;3.70;3.42;;;;;;;24.57;54.59;94298.63;2618385;54;20261;-82
2022/09/10 09:08:24;;;;;;;4.07;3.72;;;;;;;25.14;54.41;94379.63;2618162;47;20180;-82
2022/09/10 09:10:57;;;;;;;5.00;4.60;;;;;;;25.23;54.20;94371.41;2618072;54;20279;-83
2022/09/10 09:13:39;;;;;;;4.10;3.80;;;;;;;24.63;53.93;94287.59;2618860;54;20152;-83
2022/09/10 09:16:39;;;;;;;5.78;4.68;;;;;;;25.41;53.78;94364.38;2618854;54;20177;-84
2022/09/10 09:19:16;;;;;;;4.50;4.10;;;;;;;25.61;53.71;94383.34;2619908;54;20145;-83
2022/09/10 09:21:53;;;;;;;4.38;4.18;;;;;;;24.43;54.63;94262.81;2627460;54;20157;-85
2022/09/10 09:24:40;;;;;;;4.15;3.85;;;;;;;24.68;55.96;94328.72;2628779;47;20184;-86
2022/09/10 09:27:20;;;;;;;5.15;3.72;;;;;;;24.65;54.62;94321.56;2627424;47;20149;-85
2022/09/10 09:29:55;;;;;;;4.28;3.97;;;;;;;24.12;54.79;94233.22;2630202;47;20148;-86
2022/09/10 09:32:26;;;;;;;3.88;3.60;;;;;;;24.13;55.98;94222.34;2628269;47;20160;-88
2022/09/10 09:34:58;;;;;;;5.43;4.13;;;;;;;24.21;56.72;94272.03;2622445;46;20286;-84
2022/09/10 09:37:33;;;;;;;4.20;3.90;;;;;;;23.63;56.40;94173.75;2619443;39;20690;-85
2022/09/10 09:40:15;;;;;;;4.40;4.10;;;;;;;24.67;56.43;94318.63;2619008;47;20176;-84
2022/09/10 09:42:51;;;;;;;6.28;4.30;;;;;;;23.73;56.75;94184.34;2607400;47;20804;-86
2022/09/10 09:45:27;;;;;;;5.85;3.40;;;;;;;24.34;56.91;94255.78;2615757;54;20153;-85
2022/09/10 09:47:56;;;;;;;5.47;4.38;;;;;;;24.47;56.18;94241.00;2615642;54;20160;-83
2022/09/10 09:50:25;;;;;;;4.40;4.00;;;;;;;24.97;54.25;94259.16;2617269;47;20153;-85
2022/09/10 09:53:03;;;;;;;5.32;3.88;;;;;;;25.02;54.90;94243.78;2617282;47;20163;-88
2022/09/10 09:55:41;;;;;;;4.10;3.85;;;;;;;25.64;53.82;94300.66;2618019;46;20164;-85
2022/09/10 10:01:32;;;;;;;3.90;3.60;;;;;;;24.96;54.45;94214.28;2615585;47;20783;-84
2022/09/10 10:04:04;;;;;;;3.75;3.45;;;;;;;25.80;53.05;94259.53;2616822;54;20165;-83
2022/09/10 10:06:35;;;;;;;3.97;3.65;;;;;;;26.22;52.66;94300.94;2617337;47;20156;-85
2022/09/10 10:09:07;;;;;;;5.82;4.20;;;;;;;25.99;53.13;94277.03;2621470;54;20157;-84
2022/09/10 10:11:47;;;;;;;5.18;4.38;;;;;;;25.35;51.86;94187.72;2621972;47;20156;-83
2022/09/10 10:14:40;;;;;;;4.55;4.13;;;;;;;25.61;51.98;94224.59;2626148;54;20209;-85
2022/09/10 10:17:29;;;;;;;3.72;3.30;;;;;;;26.30;51.37;94265.84;2626755;54;20181;-83
2022/09/10 10:20:04;;;;;;;3.50;3.25;;;;;;;26.60;51.07;94240.84;2618757;54;20229;-85
2022/09/10 10:22:35;;;;;;;6.18;3.85;;;;;;;26.82;50.33;94248.75;2616287;54;20190;-84
2022/09/10 10:25:06;;;;;;;3.80;3.50;;;;;;;27.05;49.29;94268.31;2616079;54;20161;-85
2022/09/10 10:27:40;;;;;;;7.43;4.18;;;;;;;26.54;50.39;94252.69;2618499;54;20180;-86
2022/09/10 10:30:25;;;;;;;5.75;3.67;;;;;;;26.78;49.98;94275.06;2622916;47;20168;-85
2022/09/10 10:32:57;;;;;;;6.72;3.78;;;;;;;26.94;49.79;94223.66;2622765;54;20211;-85
2022/09/10 10:36:26;;;;;;;4.10;3.70;;;;;;;27.20;49.46;94263.34;2629206;54;20160;-85
2022/09/10 10:49:18;;;;;;;3.72;3.53;;;;;;;26.97;49.97;94236.63;2620035;46;20707;-84
2022/09/10 10:51:55;;;;;;;5.30;4.80;;;;;;;26.72;50.88;94254.94;2617612;47;20259;-83
2022/09/10 10:55:18;;;;;;;3.45;3.25;;;;;;;26.79;48.19;94229.97;2617202;47;20172;-84
2022/09/10 10:58:07;;;;;;;3.67;3.47;;;;;;;26.68;49.27;94223.13;2617278;54;20157;-83
2022/09/10 11:01:08;;;;;;;3.60;3.30;;;;;;;27.32;47.72;94242.56;2617001;47;20347;-83
2022/09/10 11:03:43;;;;;;;3.53;3.30;;;;;;;27.22;47.56;94211.66;2617135;54;20180;-84
2022/09/10 11:06:37;;;;;;;3.15;2.88;;;;;;;27.76;47.67;94227.75;2617440;54;20168;-84
2022/09/10 11:09:15;;;;;;;3.60;3.22;;;;;;;28.04;45.05;94206.22;2616986;46;20172;-83
2022/09/10 11:11:52;;;;;;;3.08;2.88;;;;;;;27.67;45.70;94238.31;2617062;47;20149;-83
2022/09/10 11:14:28;;;;;;;4.35;3.42;;;;;;;27.22;46.75;94210.94;2617719;47;20205;-83
2022/09/10 11:17:06;;;;;;;4.97;2.88;;;;;;;27.92;45.10;94262.00;2617694;47;20163;-83
2022/09/10 11:19:43;;;;;;;1.80;1.70;;;;;;;27.23;49.66;94302.50;2618053;47;20710;-83
2022/09/10 11:22:21;;;;;;;0.63;0.63;;;;;;;25.42;53.87;94308.50;2620385;54;20144;-83
2022/09/10 11:24:53;;;;;;;0.40;0.40;;;;;;;24.03;55.65;94266.72;2616988;47;20172;-83
2022/09/10 11:27:26;;;;;;;0.75;0.75;;;;;;;23.54;58.16;94299.69;2617374;54;20145;-83
2022/09/10 11:30:02;;;;;;;1.08;1.08;;;;;;;23.88;57.37;94341.56;2617147;54;20156;-83
2022/09/10 11:32:37;;;;;;;1.10;1.10;;;;;;;23.05;63.61;94239.41;2617949;54;20160;-83
2022/09/10 11:35:18;;;;;;;2.28;1.25;;;;;;;22.85;65.80;94248.47;2622585;54;20163;-82
2022/09/10 11:38:02;;;;;;;1.75;1.65;;;;;;;23.58;67.71;94333.59;2621635;47;20168;-83
2022/09/10 11:40:38;;;;;;;1.70;1.60;;;;;;;23.51;66.79;94323.63;2617902;47;20164;-83
2022/09/10 11:43:12;;;;;;;2.13;1.65;;;;;;;23.48;65.35;94267.31;2618790;54;20218;-84
2022/09/10 11:45:51;;;;;;;3.33;1.92;;;;;;;23.46;65.08;94232.69;2620013;54;20203;-83
2022/09/10 11:48:27;;;;;;;1.85;1.75;;;;;;;23.67;66.08;94285.69;2623612;39;20587;-85
2022/09/10 11:51:03;;;;;;;3.63;1.63;;;;;;;22.96;66.51;94229.50;2617020;47;20173;-83
2022/09/10 11:53:35;;;;;;;2.45;2.03;;;;;;;22.71;67.36;94220.59;2617816;54;20675;-83
2022/09/10 11:56:40;;;;;;;2.28;1.60;;;;;;;23.35;65.80;94279.16;2619580;47;20149;-83
2022/09/10 11:59:25;;;;;;;2.05;1.85;;;;;;;22.87;68.82;94239.78;2617077;47;20160;-83
2022/09/10 12:02:27;;;;;;;1.75;1.65;;;;;;;23.00;68.18;94298.69;2617093;54;20148;-83
2022/09/10 12:05:05;;;;;;;1.80;1.70;;;;;;;22.79;77.23;94297.72;2617493;54;20145;-82
2022/09/10 12:07:45;;;;;;;10.70;2.10;;;;;;;22.90;70.90;94319.84;2617497;54;20160;-80
2022/09/10 12:11:05;;;;;;;;;;;;;;;;;;;;;
2022/09/10 12:13:38;;;;;;;2.17;1.95;;;;;;;21.95;72.02;94221.34;2618342;54;20148;-83
2022/09/10 12:16:18;;;;;;;5.03;2.15;;;;;;;22.00;84.33;94267.44;2618108;47;20168;-82
2022/09/10 12:18:51;;;;;;;3.40;2.42;;;;;;;22.37;75.30;94273.94;2618205;54;20168;-83
2022/09/10 12:21:31;;;;;;;2.38;2.28;;;;;;;22.36;81.34;94272.53;2617636;54;20145;-82
2022/09/10 12:24:05;;;;;;;2.05;1.95;;;;;;;21.34;90.26;94175.56;2618670;54;20145;-82
2022/09/10 12:26:44;;;;;;;2.65;2.10;;;;;;;21.87;92.71;94247.41;2619102;54;20693;-82
2022/09/10 12:33:03;;;;;;;7.00;2.65;;;;;;;20.95;97.96;94103.44;2618513;47;20179;-82
2022/09/10 12:35:46;;;;;;;2.72;2.53;;;;;;;21.51;100.00;94185.34;2618715;54;20157;-82